Time;durP1;ratioP1;P1;durP2;ratioP2;P2;SDS_P1;SDS_P2;PMS_P1;PMS_P2;Temp;Humidity;BMP_temperature;BMP_pressure;BME280_temperature;BME280_humidity;BME280_pressure;Samples;Min_cycle;Max_cycle;Signal;HPM_P1;HPM_P2
2022/06/09 00:01:57;;;;;;;7.22;5.80;;;15.70;99.90;;;;;;5080590;28;20020;-48
2022/06/09 00:04:30;;;;;;;6.40;5.90;;;15.70;99.90;;;;;;5046851;28;20017;-53
2022/06/09 00:07:05;;;;;;;6.68;5.90;;;15.70;99.90;;;;;;5048673;28;20021;-53
2022/06/09 00:09:42;;;;;;;6.82;5.57;;;15.70;99.90;;;;;;5068653;28;20017;-50
2022/06/09 00:12:09;;;;;;;6.40;5.80;;;15.60;99.90;;;;;;5057162;28;20655;-48
2022/06/09 00:14:36;;;;;;;5.45;4.85;;;15.60;99.90;;;;;;5066078;28;20025;-49
2022/06/09 00:17:02;;;;;;;7.18;5.30;;;15.60;99.90;;;;;;5074342;28;20024;-50
2022/06/09 00:19:28;;;;;;;5.75;5.15;;;15.70;99.90;;;;;;5059771;28;20471;-53
2022/06/09 00:21:53;;;;;;;5.57;5.07;;;15.70;99.90;;;;;;5072624;28;20046;-48
2022/06/09 00:24:19;;;;;;;7.00;6.40;;;15.70;99.90;;;;;;5049662;28;20074;-51
2022/06/09 00:26:45;;;;;;;6.90;6.20;;;15.70;99.90;;;;;;5070281;28;20398;-50
2022/06/09 00:29:12;;;;;;;6.75;6.18;;;15.70;99.90;;;;;;5080525;28;20062;-48
2022/06/09 00:31:37;;;;;;;5.45;4.95;;;15.70;99.90;;;;;;5070792;28;20057;-48
2022/06/09 00:34:03;;;;;;;5.90;5.40;;;15.70;99.90;;;;;;5050234;28;20028;-48
2022/06/09 00:36:29;;;;;;;5.75;5.25;;;15.70;99.90;;;;;;5068871;28;20382;-49
2022/06/09 00:38:57;;;;;;;5.78;4.97;;;15.70;99.90;;;;;;5074844;28;20099;-49
2022/06/09 00:41:24;;;;;;;6.38;5.88;;;15.70;99.90;;;;;;5067572;28;20024;-49
2022/06/09 00:43:50;;;;;;;5.82;5.32;;;15.70;99.90;;;;;;5072210;28;20020;-49
2022/06/09 00:46:18;;;;;;;6.50;5.90;;;15.70;99.90;;;;;;5061191;28;20075;-49
2022/06/09 00:48:47;;;;;;;5.85;5.25;;;15.70;99.90;;;;;;5070841;28;20025;-49
2022/06/09 00:51:27;;;;;;;6.80;5.65;;;15.70;99.90;;;;;;5076932;28;20051;-48
2022/06/09 00:53:58;;;;;;;5.78;5.28;;;15.70;99.90;;;;;;5068207;28;20433;-49
2022/06/09 00:56:25;;;;;;;6.05;5.55;;;15.70;99.90;;;;;;5076026;28;20483;-49
2022/06/09 00:58:53;;;;;;;6.18;5.57;;;15.70;99.90;;;;;;5065447;28;20364;-51
2022/06/09 01:01:20;;;;;;;7.55;6.85;;;15.70;99.90;;;;;;5074509;28;20153;-48
2022/06/09 01:03:54;;;;;;;7.95;6.30;;;15.70;99.90;;;;;;5055188;28;20526;-48
2022/06/09 01:06:27;;;;;;;7.50;6.70;;;15.70;99.90;;;;;;5073867;28;20032;-50
2022/06/09 01:09:07;;;;;;;6.60;5.97;;;15.70;99.90;;;;;;5073013;28;20044;-50
2022/06/09 01:11:33;;;;;;;6.38;5.88;;;15.70;99.90;;;;;;5073320;28;20106;-48
2022/06/09 01:13:59;;;;;;;6.63;6.00;;;15.70;99.90;;;;;;5070379;28;20394;-49
2022/06/09 01:16:30;;;;;;;7.03;6.43;;;15.70;99.90;;;;;;5067933;28;20029;-48
2022/06/09 01:19:29;;;;;;;7.15;6.45;;;15.70;99.90;;;;;;5079630;28;20024;-49
2022/06/09 01:22:42;;;;;;;7.10;6.40;;;15.70;99.90;;;;;;5067068;28;20016;-49
2022/06/09 01:25:46;;;;;;;7.78;6.38;;;15.70;99.90;;;;;;5050940;28;20116;-48
2022/06/09 01:28:29;;;;;;;7.45;6.75;;;15.70;99.90;;;;;;5078159;28;20016;-48
2022/06/09 01:31:03;;;;;;;8.15;7.38;;;15.70;99.90;;;;;;5069151;28;20028;-48
2022/06/09 01:33:38;;;;;;;7.53;6.82;;;15.70;99.90;;;;;;5076418;28;20021;-46
2022/06/09 01:36:13;;;;;;;10.32;8.57;;;15.70;99.90;;;;;;5069491;28;20059;-48
2022/06/09 01:38:53;;;;;;;8.27;7.50;;;15.60;99.90;;;;;;5079009;28;20028;-50
2022/06/09 01:41:21;;;;;;;8.38;7.57;;;15.70;99.90;;;;;;5068458;28;20021;-50
2022/06/09 01:43:49;;;;;;;8.38;7.60;;;15.70;99.90;;;;;;5076258;28;20082;-50
2022/06/09 01:46:33;;;;;;;9.68;8.70;;;15.60;99.90;;;;;;5048847;28;20028;-51
2022/06/09 01:49:06;;;;;;;11.68;9.95;;;15.60;99.90;;;;;;5074722;28;20021;-50
2022/06/09 01:51:36;;;;;;;10.57;9.40;;;15.60;99.90;;;;;;5079692;28;20025;-48
2022/06/09 01:54:30;;;;;;;9.55;8.65;;;15.60;99.90;;;;;;5071539;28;20104;-48
2022/06/09 01:57:03;;;;;;;10.95;8.88;;;15.60;99.90;;;;;;5069698;28;20048;-47
2022/06/09 01:59:37;;;;;;;10.32;9.43;;;15.60;99.90;;;;;;5071906;28;20031;-49
2022/06/09 02:02:17;;;;;;;9.98;9.00;;;15.50;99.90;;;;;;5081086;28;20047;-48
2022/06/09 02:04:50;;;;;;;10.82;8.50;;;15.50;99.90;;;;;;5050146;28;20052;-47
2022/06/09 02:07:17;;;;;;;11.15;10.00;;;15.50;99.90;;;;;;5071230;28;20020;-48
2022/06/09 02:09:43;;;;;;;10.43;8.98;;;15.50;99.90;;;;;;5071970;28;20045;-47
2022/06/09 02:12:13;;;;;;;10.15;9.25;;;15.40;99.90;;;;;;5077144;28;20032;-47
2022/06/09 02:14:43;;;;;;;10.18;9.10;;;15.40;99.90;;;;;;5070144;28;20390;-48
2022/06/09 02:17:09;;;;;;;10.93;9.50;;;15.40;99.90;;;;;;5052865;28;20091;-47
2022/06/09 02:19:38;;;;;;;9.13;8.23;;;15.40;99.90;;;;;;5071487;28;20025;-47
2022/06/09 02:22:06;;;;;;;8.63;7.18;;;15.40;99.90;;;;;;5069210;28;20207;-46
2022/06/09 02:24:32;;;;;;;10.30;9.32;;;15.40;99.90;;;;;;5069130;28;20024;-47
2022/06/09 02:26:58;;;;;;;9.43;8.10;;;15.30;99.90;;;;;;5045658;28;20036;-46
2022/06/09 02:29:24;;;;;;;9.57;8.68;;;15.30;99.90;;;;;;5067045;28;20503;-46
2022/06/09 02:31:50;;;;;;;8.57;7.78;;;15.20;99.90;;;;;;5068988;28;20103;-48
2022/06/09 02:34:16;;;;;;;9.30;8.40;;;15.20;99.90;;;;;;5065785;28;20104;-47
2022/06/09 02:36:42;;;;;;;9.95;9.00;;;15.20;99.90;;;;;;5068120;28;20043;-47
2022/06/09 02:39:08;;;;;;;9.98;9.02;;;15.10;99.90;;;;;;5070824;28;20538;-47
2022/06/09 02:41:34;;;;;;;9.40;8.50;;;15.10;99.90;;;;;;5067310;28;20050;-49
2022/06/09 02:43:59;;;;;;;13.27;10.63;;;15.10;99.90;;;;;;5069399;28;20584;-49
2022/06/09 02:46:25;;;;;;;9.57;8.57;;;15.10;99.90;;;;;;5048511;28;20040;-46
2022/06/09 02:48:53;;;;;;;10.32;9.35;;;15.10;99.90;;;;;;5067835;28;20032;-46
2022/06/09 02:51:25;;;;;;;10.98;9.30;;;15.10;99.90;;;;;;5071378;28;20020;-47
2022/06/09 02:53:52;;;;;;;10.60;9.57;;;15.10;99.90;;;;;;5067809;28;20387;-48
2022/06/09 02:56:18;;;;;;;12.82;11.45;;;15.10;99.90;;;;;;5070422;28;20028;-47
2022/06/09 02:58:44;;;;;;;9.88;8.93;;;15.10;99.90;;;;;;5066666;28;20024;-48
2022/06/09 03:01:10;;;;;;;10.38;9.20;;;15.00;99.90;;;;;;5068635;28;20020;-52
2022/06/09 03:03:36;;;;;;;11.18;9.95;;;15.10;99.90;;;;;;5065528;28;20099;-47
2022/06/09 03:06:03;;;;;;;10.02;9.07;;;15.00;99.90;;;;;;5067678;28;20100;-48
2022/06/09 03:08:29;;;;;;;11.05;10.05;;;15.10;99.90;;;;;;5070762;28;20025;-48
2022/06/09 03:10:54;;;;;;;11.77;10.60;;;15.10;99.90;;;;;;5066311;28;20039;-49
2022/06/09 03:13:20;;;;;;;10.95;9.85;;;15.10;99.90;;;;;;5069950;28;20032;-49
2022/06/09 03:15:47;;;;;;;10.95;9.95;;;15.10;99.90;;;;;;5066043;28;20024;-46
2022/06/09 03:18:14;;;;;;;11.10;10.02;;;15.10;99.90;;;;;;5068510;28;20016;-46
2022/06/09 03:20:40;;;;;;;10.63;9.57;;;15.10;99.90;;;;;;5064868;28;20056;-46
2022/06/09 03:23:06;;;;;;;9.10;8.23;;;15.10;99.90;;;;;;5066446;28;20071;-45
2022/06/09 03:25:32;;;;;;;8.98;8.07;;;15.00;99.90;;;;;;5070132;28;20064;-48
2022/06/09 03:27:58;;;;;;;8.73;7.88;;;15.10;99.90;;;;;;5064549;28;20025;-47
2022/06/09 03:30:24;;;;;;;8.85;7.22;;;15.10;99.90;;;;;;5069876;28;20024;-47
2022/06/09 03:32:49;;;;;;;7.55;6.85;;;15.10;99.90;;;;;;5064496;28;20086;-46
2022/06/09 03:35:15;;;;;;;8.32;7.32;;;15.10;99.90;;;;;;5066681;28;20021;-47
2022/06/09 03:37:41;;;;;;;9.05;7.18;;;15.10;99.90;;;;;;5069990;28;20082;-47
2022/06/09 03:40:10;;;;;;;8.43;7.63;;;15.10;99.90;;;;;;5046759;28;20460;-48
2022/06/09 03:42:36;;;;;;;7.53;6.40;;;15.10;99.90;;;;;;5051750;28;20016;-46
2022/06/09 03:45:01;;;;;;;9.73;6.70;;;15.10;99.90;;;;;;5063351;28;20020;-46
2022/06/09 03:47:27;;;;;;;6.93;6.25;;;15.10;99.90;;;;;;5109099;23;20553;-51
2022/06/09 03:49:52;;;;;;;5.72;5.22;;;15.10;99.90;;;;;;5104763;28;20599;-53
2022/06/09 03:52:18;;;;;;;6.30;5.70;;;15.10;99.90;;;;;;5107587;28;20015;-51
2022/06/09 03:54:44;;;;;;;7.20;5.65;;;15.10;99.90;;;;;;5110676;28;20027;-51
2022/06/09 03:57:10;;;;;;;5.70;5.15;;;15.00;99.90;;;;;;5078641;28;20166;-50
2022/06/09 03:59:35;;;;;;;5.53;4.57;;;15.00;99.90;;;;;;5096792;28;20024;-49
2022/06/09 04:02:01;;;;;;;7.10;5.60;;;15.00;99.90;;;;;;5087545;28;20029;-52
2022/06/09 04:04:26;;;;;;;7.82;5.80;;;15.00;99.90;;;;;;5096145;28;20016;-49
2022/06/09 04:06:52;;;;;;;7.60;6.50;;;15.00;99.90;;;;;;5087268;28;20105;-48
2022/06/09 04:09:18;;;;;;;8.18;6.20;;;14.90;99.90;;;;;;5096083;28;20020;-49
2022/06/09 04:11:43;;;;;;;7.72;6.35;;;14.90;99.90;;;;;;5096257;28;20051;-48
2022/06/09 04:14:09;;;;;;;5.80;5.15;;;14.90;99.90;;;;;;5072562;28;20677;-49
2022/06/09 04:16:38;;;;;;;6.18;5.57;;;14.90;99.90;;;;;;5096221;28;20440;-48
2022/06/09 04:19:07;;;;;;;7.28;6.47;;;14.90;99.90;;;;;;5068869;28;20021;-51
2022/06/09 04:21:34;;;;;;;6.22;5.63;;;14.90;99.90;;;;;;5084059;28;20016;-49
2022/06/09 04:24:00;;;;;;;7.82;7.00;;;14.90;99.90;;;;;;5086889;28;20020;-50
2022/06/09 04:26:28;;;;;;;7.97;7.18;;;14.90;99.90;;;;;;5087049;28;20127;-51
2022/06/09 04:28:54;;;;;;;7.85;6.95;;;14.90;99.90;;;;;;5096872;28;20023;-53
2022/06/09 04:31:20;;;;;;;8.43;7.63;;;14.90;99.90;;;;;;5085571;28;20397;-49
2022/06/09 04:33:46;;;;;;;12.15;8.63;;;14.90;99.90;;;;;;5093565;28;20106;-49
2022/06/09 04:36:14;;;;;;;10.77;8.65;;;15.00;99.90;;;;;;5088047;28;20028;-52
2022/06/09 04:38:40;;;;;;;13.15;9.43;;;14.90;99.90;;;;;;5091130;28;20015;-49
2022/06/09 04:41:09;;;;;;;10.40;8.80;;;15.00;99.90;;;;;;5096848;28;20020;-54
2022/06/09 04:43:36;;;;;;;8.88;7.88;;;15.00;99.90;;;;;;5088207;28;20391;-49
2022/06/09 04:46:03;;;;;;;8.85;7.97;;;15.10;99.90;;;;;;5095566;28;20019;-53
2022/06/09 04:48:28;;;;;;;11.60;9.18;;;15.10;99.90;;;;;;5084621;28;20020;-50
2022/06/09 04:50:54;;;;;;;11.75;9.35;;;15.10;99.90;;;;;;5089165;28;20173;-52
2022/06/09 04:53:20;;;;;;;11.20;9.93;;;15.10;99.90;;;;;;5078775;28;20031;-50
2022/06/09 04:55:46;;;;;;;12.02;10.05;;;15.20;99.90;;;;;;5091978;28;20100;-50
2022/06/09 04:58:11;;;;;;;13.15;11.85;;;15.20;99.90;;;;;;5095761;28;20528;-50
2022/06/09 05:00:37;;;;;;;14.85;11.30;;;15.20;99.90;;;;;;5087969;28;20035;-50
2022/06/09 05:03:03;;;;;;;15.07;11.77;;;15.20;99.90;;;;;;5094652;28;20099;-52
2022/06/09 05:05:34;;;;;;;13.93;11.40;;;15.20;99.90;;;;;;5084207;28;20151;-55
2022/06/09 05:08:00;;;;;;;13.05;10.82;;;15.30;99.90;;;;;;5093784;28;20031;-52
2022/06/09 05:10:27;;;;;;;12.95;11.50;;;15.30;99.90;;;;;;5097649;28;20044;-55
2022/06/09 05:12:54;;;;;;;14.68;11.77;;;15.30;99.90;;;;;;5096142;28;20098;-52
2022/06/09 05:15:20;;;;;;;13.32;11.93;;;15.40;99.90;;;;;;5098777;28;20575;-52
2022/06/09 05:17:48;;;;;;;15.18;11.13;;;15.40;99.90;;;;;;5093080;28;20409;-54
2022/06/09 05:20:16;;;;;;;14.68;11.80;;;15.40;99.90;;;;;;5097090;28;20016;-53
2022/06/09 05:22:42;;;;;;;12.93;10.65;;;15.30;99.90;;;;;;5089312;28;20024;-53
2022/06/09 05:25:08;;;;;;;11.32;10.07;;;15.30;99.90;;;;;;5095133;28;20023;-52
2022/06/09 05:27:34;;;;;;;12.25;10.65;;;15.40;99.90;;;;;;5073796;28;20485;-54
2022/06/09 05:30:00;;;;;;;14.02;9.95;;;15.30;99.90;;;;;;5078777;28;20077;-51
2022/06/09 05:32:26;;;;;;;14.63;10.98;;;15.30;99.90;;;;;;5092700;28;20024;-53
2022/06/09 05:34:52;;;;;;;11.85;10.10;;;15.30;99.90;;;;;;5091853;28;20039;-56
2022/06/09 05:37:18;;;;;;;10.88;9.10;;;15.30;99.90;;;;;;5080506;28;20020;-55
2022/06/09 05:45:13;;;;;;;8.93;7.97;;;15.10;99.90;;;;;;5081343;28;20390;-52
2022/06/09 05:47:39;;;;;;;8.18;7.40;;;15.10;99.90;;;;;;5071251;28;20104;-52
2022/06/09 05:50:07;;;;;;;8.48;7.68;;;15.10;99.90;;;;;;5083212;28;20632;-50
2022/06/09 05:52:33;;;;;;;12.68;7.43;;;15.10;99.90;;;;;;5080108;28;20024;-51
2022/06/09 05:54:58;;;;;;;7.20;6.50;;;15.10;99.90;;;;;;5082180;28;20394;-53
2022/06/09 05:57:26;;;;;;;7.22;6.63;;;15.00;99.90;;;;;;5080968;28;20092;-53
2022/06/09 05:59:52;;;;;;;6.80;6.10;;;15.00;99.90;;;;;;5081417;28;20056;-50
2022/06/09 06:02:22;;;;;;;7.10;6.40;;;15.00;99.90;;;;;;5080462;28;20020;-50
2022/06/09 06:04:48;;;;;;;5.85;5.20;;;15.00;99.90;;;;;;5080566;28;20466;-52
2022/06/09 06:07:14;;;;;;;5.80;5.30;;;15.00;99.90;;;;;;5080983;28;20024;-51
2022/06/09 06:09:40;;;;;;;5.68;5.07;;;15.00;99.90;;;;;;5079042;28;20047;-50
2022/06/09 06:12:07;;;;;;;6.03;4.70;;;15.00;99.90;;;;;;5082444;28;20025;-51
2022/06/09 06:14:33;;;;;;;5.57;4.63;;;15.00;99.90;;;;;;5078811;28;20052;-53
2022/06/09 06:16:59;;;;;;;5.15;4.70;;;15.00;99.90;;;;;;5081616;28;20029;-54
2022/06/09 06:19:26;;;;;;;5.95;4.82;;;15.00;99.90;;;;;;5079059;28;20451;-50
2022/06/09 06:21:53;;;;;;;5.00;4.60;;;15.00;99.90;;;;;;5080186;28;20029;-52
2022/06/09 06:24:21;;;;;;;5.55;5.05;;;15.00;99.90;;;;;;5097903;28;20061;-54
2022/06/09 06:26:47;;;;;;;5.15;4.75;;;15.00;99.90;;;;;;5091814;28;20750;-51
2022/06/09 06:29:15;;;;;;;5.53;5.00;;;15.00;99.90;;;;;;5096357;28;20024;-49
2022/06/09 06:31:42;;;;;;;5.28;4.78;;;15.10;99.90;;;;;;5069923;28;20035;-51
2022/06/09 06:34:08;;;;;;;6.18;5.28;;;15.10;99.90;;;;;;5095209;28;20037;-50
2022/06/09 06:36:33;;;;;;;6.57;5.10;;;15.10;99.90;;;;;;5099049;28;20482;-53
2022/06/09 06:38:59;;;;;;;4.97;4.47;;;15.10;99.90;;;;;;5090296;28;20066;-52
2022/06/09 06:41:25;;;;;;;5.78;4.88;;;15.20;99.90;;;;;;5096877;28;20024;-51
2022/06/09 06:43:52;;;;;;;6.05;5.05;;;15.30;99.90;;;;;;5091468;28;20038;-50
2022/06/09 06:46:18;;;;;;;5.90;5.00;;;15.30;99.90;;;;;;5095457;28;20028;-50
2022/06/09 06:48:45;;;;;;;5.65;5.13;;;15.40;99.90;;;;;;5070583;28;20017;-51
2022/06/09 06:51:10;;;;;;;5.57;5.07;;;15.50;99.90;;;;;;5094170;28;20024;-55
2022/06/09 06:53:38;;;;;;;6.70;5.53;;;15.60;99.90;;;;;;5098667;28;20395;-53
2022/06/09 06:56:04;;;;;;;6.60;5.90;;;15.70;99.90;;;;;;5093060;28;20023;-52
2022/06/09 06:58:29;;;;;;;6.50;5.82;;;15.80;99.90;;;;;;5097375;28;20589;-50
2022/06/09 07:00:57;;;;;;;8.75;7.85;;;15.90;99.90;;;;;;5091265;28;20032;-50
2022/06/09 07:03:23;;;;;;;6.80;6.20;;;15.90;99.90;;;;;;5076888;28;20024;-50
2022/06/09 07:05:49;;;;;;;8.48;6.97;;;15.90;99.90;;;;;;5088519;28;20061;-51
2022/06/09 07:08:16;;;;;;;7.63;6.82;;;15.90;99.90;;;;;;5075747;28;20485;-50
2022/06/09 07:10:43;;;;;;;7.20;6.50;;;15.90;99.90;;;;;;5099741;28;20499;-50
2022/06/09 07:13:09;;;;;;;6.57;5.97;;;16.00;99.90;;;;;;5092239;28;20035;-50
2022/06/09 07:15:35;;;;;;;5.65;5.13;;;15.90;99.90;;;;;;5096741;28;20390;-54
2022/06/09 07:18:00;;;;;;;6.80;6.10;;;15.90;99.90;;;;;;5090898;28;20058;-53
2022/06/09 07:20:27;;;;;;;6.55;5.88;;;16.00;99.90;;;;;;5092498;28;20390;-51
2022/06/09 07:22:54;;;;;;;6.22;5.65;;;16.00;99.90;;;;;;5090655;28;20475;-53
2022/06/09 07:25:20;;;;;;;5.78;5.28;;;16.00;99.90;;;;;;5088101;28;20012;-50
2022/06/09 07:27:47;;;;;;;6.30;5.68;;;16.00;99.90;;;;;;5078787;28;20017;-51
2022/06/09 07:30:13;;;;;;;8.20;6.38;;;16.00;99.90;;;;;;5078960;28;20039;-51
2022/06/09 07:32:39;;;;;;;10.00;6.53;;;15.90;99.90;;;;;;5083763;28;20446;-50
2022/06/09 07:35:05;;;;;;;6.40;5.75;;;16.10;99.90;;;;;;5086697;28;20024;-51
2022/06/09 07:37:30;;;;;;;5.00;4.53;;;16.10;99.90;;;;;;5077081;28;20039;-54
2022/06/09 07:39:56;;;;;;;6.20;5.55;;;16.20;99.90;;;;;;5087157;28;20020;-51
2022/06/09 07:42:22;;;;;;;6.05;5.47;;;16.30;99.90;;;;;;5070394;28;20031;-53
2022/06/09 07:44:47;;;;;;;5.32;4.82;;;16.30;99.90;;;;;;5089540;28;20020;-52
2022/06/09 07:47:13;;;;;;;6.03;5.53;;;16.30;99.90;;;;;;5069509;28;20081;-53
2022/06/09 07:49:38;;;;;;;5.40;5.00;;;16.30;99.90;;;;;;5079348;28;20016;-50
2022/06/09 07:52:04;;;;;;;5.22;4.75;;;16.30;99.90;;;;;;5079943;28;20081;-50
2022/06/09 07:54:30;;;;;;;4.60;4.20;;;16.30;99.90;;;;;;5076618;28;20032;-50
2022/06/09 07:56:56;;;;;;;5.45;4.53;;;16.40;99.90;;;;;;5086337;28;20107;-53
2022/06/09 07:59:21;;;;;;;5.35;4.45;;;16.50;99.90;;;;;;5078713;28;20029;-50
2022/06/09 08:01:47;;;;;;;4.28;3.85;;;16.60;99.90;;;;;;5071917;28;20012;-50
2022/06/09 08:04:13;;;;;;;4.13;3.78;;;16.70;99.90;;;;;;5078495;28;20043;-51
2022/06/09 08:06:39;;;;;;;3.70;3.40;;;16.90;99.90;;;;;;5077933;28;20016;-51
2022/06/09 08:09:05;;;;;;;4.75;3.72;;;17.00;99.90;;;;;;5075342;28;20397;-51
2022/06/09 08:11:36;;;;;;;3.40;3.10;;;17.20;99.90;;;;;;5081385;28;20081;-51
2022/06/09 08:14:03;;;;;;;3.72;3.38;;;17.40;99.90;;;;;;5070208;28;20024;-52
2022/06/09 08:16:30;;;;;;;3.05;2.78;;;17.70;99.90;;;;;;5083792;28;20030;-51
2022/06/09 08:18:57;;;;;;;3.65;3.35;;;17.80;99.90;;;;;;5080642;28;20016;-53
2022/06/09 08:21:23;;;;;;;3.92;3.22;;;18.10;99.90;;;;;;5078068;28;20023;-51
2022/06/09 08:23:49;;;;;;;2.97;2.60;;;18.40;99.90;;;;;;5079370;28;20027;-51
2022/06/09 08:26:15;;;;;;;2.53;2.30;;;18.70;99.90;;;;;;5078315;28;20025;-52
2022/06/09 08:28:40;;;;;;;3.15;2.40;;;18.80;99.90;;;;;;5077196;28;20040;-52
2022/06/09 08:31:06;;;;;;;4.18;2.13;;;19.10;99.90;;;;;;5083305;28;20510;-51
2022/06/09 08:33:31;;;;;;;2.90;2.38;;;19.10;99.90;;;;;;5077542;28;20046;-50
2022/06/09 08:35:58;;;;;;;3.58;2.13;;;18.90;99.90;;;;;;5078249;28;20024;-53
2022/06/09 08:38:24;;;;;;;1.85;1.73;;;18.60;99.90;;;;;;5078093;28;20012;-55
2022/06/09 08:41:13;;;;;;;3.08;2.20;;;18.40;99.90;;;;;;5077876;28;20035;-51
2022/06/09 08:43:54;;;;;;;1.80;1.70;;;18.30;99.90;;;;;;5077932;28;20225;-50
2022/06/09 08:46:34;;;;;;;1.95;1.77;;;18.40;99.90;;;;;;5079244;28;20029;-54
2022/06/09 08:49:03;;;;;;;3.72;2.30;;;18.60;99.90;;;;;;5083486;28;20028;-56
2022/06/09 08:51:42;;;;;;;3.00;2.10;;;18.80;99.90;;;;;;5071913;28;20113;-51
2022/06/09 08:54:26;;;;;;;2.63;2.42;;;19.00;99.90;;;;;;5084139;28;20402;-51
2022/06/09 08:56:53;;;;;;;3.17;2.88;;;19.20;99.90;;;;;;5076889;28;20045;-54
2022/06/09 08:59:36;;;;;;;3.97;2.70;;;19.20;99.90;;;;;;5085792;28;20024;-53
2022/06/09 09:02:13;;;;;;;3.38;3.00;;;19.30;99.90;;;;;;5083376;28;20066;-54
2022/06/09 09:04:43;;;;;;;4.18;3.15;;;19.50;99.90;;;;;;5082203;28;20020;-51
2022/06/09 09:07:25;;;;;;;3.08;2.83;;;19.60;99.90;;;;;;5082207;28;20398;-50
2022/06/09 09:09:56;;;;;;;3.85;3.15;;;19.40;99.90;;;;;;5082321;28;20103;-50
2022/06/09 09:12:35;;;;;;;3.92;3.60;;;19.20;99.90;;;;;;5081312;28;20101;-51
2022/06/09 09:15:21;;;;;;;4.47;3.58;;;19.00;99.90;;;;;;5081338;28;20545;-51
2022/06/09 09:18:02;;;;;;;4.17;3.77;;;18.60;99.90;;;;;;5081279;28;20041;-50
2022/06/09 09:20:37;;;;;;;7.80;3.95;;;18.40;99.90;;;;;;5080740;28;20259;-53
2022/06/09 09:23:11;;;;;;;4.85;4.43;;;18.40;99.90;;;;;;5082814;28;20041;-52
2022/06/09 09:25:42;;;;;;;4.82;3.72;;;18.30;99.90;;;;;;5078967;28;20013;-50
2022/06/09 09:28:27;;;;;;;5.90;4.20;;;18.20;99.90;;;;;;5083695;28;20214;-49
2022/06/09 09:31:10;;;;;;;4.78;4.30;;;18.00;99.90;;;;;;5088176;28;20020;-53
2022/06/09 09:33:36;;;;;;;5.05;4.55;;;17.90;99.90;;;;;;5081248;28;20024;-51
2022/06/09 09:36:10;;;;;;;6.22;4.20;;;17.90;99.90;;;;;;5081594;28;20024;-50
2022/06/09 09:38:47;;;;;;;4.30;3.90;;;18.00;99.90;;;;;;5081411;28;20471;-52
2022/06/09 09:41:34;;;;;;;5.30;4.65;;;18.20;99.90;;;;;;5081250;28;20056;-50
2022/06/09 09:44:12;;;;;;;5.40;4.90;;;18.30;99.90;;;;;;5082333;28;20017;-52
2022/06/09 09:46:41;;;;;;;6.05;4.75;;;18.60;99.90;;;;;;5106735;22;20323;-48
2022/06/09 09:49:20;;;;;;;5.40;4.22;;;18.90;99.90;;;;;;5110945;28;20485;-45
2022/06/09 09:51:46;;;;;;;4.53;4.13;;;19.20;99.90;;;;;;5112586;28;20019;-46
2022/06/09 09:54:35;;;;;;;6.95;4.05;;;19.30;99.90;;;;;;5105050;28;20012;-46
2022/06/09 09:57:19;;;;;;;5.82;4.57;;;19.30;99.90;;;;;;5110465;28;20109;-45
2022/06/09 09:59:49;;;;;;;5.97;5.00;;;19.50;99.90;;;;;;5100643;28;20012;-46
2022/06/09 10:08:40;;;;;;;3.47;3.20;;;19.30;99.90;;;;;;5101866;28;20035;-49
2022/06/09 10:14:03;;;;;;;4.57;2.30;;;18.70;99.90;;;;;;5107185;28;20022;-45
2022/06/09 10:16:32;;;;;;;3.33;3.03;;;18.60;99.90;;;;;;5100335;28;20024;-45
2022/06/09 10:19:02;;;;;;;4.43;3.60;;;18.50;99.90;;;;;;5102120;28;20020;-46
2022/06/09 10:21:50;;;;;;;3.38;3.00;;;18.60;99.90;;;;;;5104436;28;20030;-48
2022/06/09 10:24:21;;;;;;;3.38;3.08;;;18.90;99.90;;;;;;5089370;28;20019;-52
2022/06/09 10:26:54;;;;;;;3.75;3.42;;;19.00;99.90;;;;;;5103068;28;20021;-52
2022/06/09 10:29:45;;;;;;;4.32;3.75;;;19.20;99.90;;;;;;5071220;28;20027;-45
2022/06/09 10:32:23;;;;;;;4.55;4.00;;;19.40;99.90;;;;;;5100009;28;20031;-48
2022/06/09 10:35:11;;;;;;;3.92;3.60;;;19.30;99.90;;;;;;5107278;28;20028;-48
2022/06/09 10:37:59;;;;;;;5.22;4.47;;;19.30;99.90;;;;;;5081063;28;20023;-50
2022/06/09 10:40:47;;;;;;;19.13;6.47;;;19.30;99.90;;;;;;5093242;28;20020;-45
2022/06/09 10:43:54;;;;;;;9.30;4.82;;;19.30;99.90;;;;;;5102699;28;20440;-51
2022/06/09 10:55:59;;;;;;;4.00;3.60;;;19.10;99.90;;;;;;5098198;28;20088;-48
2022/06/09 10:58:32;;;;;;;4.85;4.40;;;19.10;99.90;;;;;;5094332;28;20030;-47
2022/06/09 11:00:58;;;;;;;5.20;4.72;;;19.00;99.90;;;;;;5101543;28;20020;-46
2022/06/09 11:03:30;;;;;;;4.40;4.00;;;19.00;99.90;;;;;;5102439;28;20027;-47
2022/06/09 11:06:20;;;;;;;5.50;4.22;;;19.10;99.90;;;;;;5101690;28;20162;-47
2022/06/09 11:09:01;;;;;;;4.07;3.78;;;19.10;99.90;;;;;;5102027;28;20049;-45
2022/06/09 11:11:39;;;;;;;5.80;3.90;;;19.20;99.90;;;;;;5095792;28;20699;-46
2022/06/09 11:14:33;;;;;;;4.30;3.65;;;19.10;99.90;;;;;;5107458;28;20031;-47
2022/06/09 11:17:26;;;;;;;3.35;3.05;;;19.20;99.90;;;;;;5098364;28;20028;-45
2022/06/09 11:20:13;;;;;;;3.30;2.78;;;19.30;99.90;;;;;;5100881;28;20126;-46
2022/06/09 11:22:49;;;;;;;2.50;2.30;;;19.40;99.90;;;;;;5102329;28;20008;-47
2022/06/09 11:25:34;;;;;;;;;;;19.40;99.90;;;;;;5082354;28;20053;-46
2022/06/09 11:28:12;;;;;;;6.72;3.10;;;19.40;99.90;;;;;;5100752;28;19911;-48
2022/06/09 11:31:02;;;;;;;3.75;2.70;;;19.40;99.90;;;;;;5094046;28;20482;-45
2022/06/09 11:33:48;;;;;;;2.80;2.60;;;19.50;99.90;;;;;;5090805;28;20045;-47
2022/06/09 11:36:24;;;;;;;2.33;2.22;;;19.60;99.90;;;;;;5089870;28;20057;-50
2022/06/09 11:39:21;;;;;;;2.15;1.95;;;19.60;99.90;;;;;;5101833;28;20436;-46
2022/06/09 11:42:12;;;;;;;2.10;2.00;;;19.70;99.90;;;;;;5102162;28;20046;-48
2022/06/09 11:44:40;;;;;;;3.83;2.00;;;19.60;99.90;;;;;;5093699;28;20016;-50
2022/06/09 11:47:19;;;;;;;3.15;2.25;;;19.50;99.90;;;;;;5104929;28;20024;-51
2022/06/09 11:49:49;;;;;;;4.88;2.35;;;19.50;99.90;;;;;;5095852;28;20028;-54
2022/06/09 11:52:28;;;;;;;2.50;2.30;;;19.50;99.90;;;;;;5090820;28;20068;-52
2022/06/09 11:54:55;;;;;;;2.40;2.20;;;19.50;99.90;;;;;;5096293;28;20123;-49
2022/06/09 11:57:40;;;;;;;4.32;3.13;;;19.60;99.90;;;;;;5105635;28;20016;-53
2022/06/09 12:00:27;;;;;;;4.03;2.90;;;19.70;99.90;;;;;;5099742;28;20024;-49
2022/06/09 12:03:31;;;;;;;2.40;2.20;;;19.90;99.90;;;;;;5099661;28;20016;-51
2022/06/09 12:06:25;;;;;;;2.80;2.60;;;20.00;99.90;;;;;;5027708;28;20032;-50
2022/06/09 12:09:00;;;;;;;2.90;2.60;;;19.90;99.90;;;;;;5103003;28;20057;-49
2022/06/09 12:11:51;;;;;;;2.45;2.25;;;19.80;99.90;;;;;;5097900;28;20073;-47
2022/06/09 12:14:23;;;;;;;3.45;2.33;;;20.00;99.90;;;;;;5090361;28;20385;-46
2022/06/09 12:17:05;;;;;;;2.20;1.70;;;19.80;99.90;;;;;;5097701;28;20077;-45
2022/06/09 12:19:35;;;;;;;3.00;2.17;;;19.80;99.90;;;;;;5072779;28;20031;-53
2022/06/09 12:22:38;;;;;;;1.98;1.88;;;19.90;99.90;;;;;;5099214;28;20528;-46
2022/06/09 12:25:17;;;;;;;2.42;2.20;;;20.10;99.90;;;;;;5100329;28;20099;-45
2022/06/09 12:27:48;;;;;;;2.03;1.90;;;20.10;99.90;;;;;;5101114;28;20024;-46
2022/06/09 12:30:28;;;;;;;1.63;1.52;;;20.20;99.90;;;;;;5093502;28;20031;-48
2022/06/09 12:33:20;;;;;;;1.77;1.67;;;20.10;99.90;;;;;;5095381;28;20050;-48
2022/06/09 12:35:52;;;;;;;1.95;1.65;;;20.10;99.90;;;;;;5100494;28;20028;-50
2022/06/09 12:38:35;;;;;;;1.80;1.70;;;20.20;99.90;;;;;;5087993;28;20077;-49
2022/06/09 12:41:21;;;;;;;2.63;2.03;;;20.20;99.90;;;;;;5082689;28;20020;-48
2022/06/09 12:44:00;;;;;;;1.95;1.80;;;20.40;99.90;;;;;;5101497;28;20020;-51
2022/06/09 12:46:29;;;;;;;2.47;1.45;;;20.40;99.90;;;;;;5094599;28;20103;-47
2022/06/09 12:48:55;;;;;;;1.48;1.38;;;20.40;99.90;;;;;;5100438;28;20118;-45
2022/06/09 12:51:23;;;;;;;1.63;1.52;;;20.40;99.90;;;;;;5100867;28;20020;-49
2022/06/09 12:54:00;;;;;;;1.73;1.05;;;20.40;99.90;;;;;;5100877;28;20020;-47
2022/06/09 12:56:58;;;;;;;1.70;1.30;;;20.50;99.90;;;;;;5102548;28;20068;-49
2022/06/09 12:59:37;;;;;;;2.42;1.75;;;20.50;99.90;;;;;;5092732;28;20028;-48
2022/06/09 13:02:30;;;;;;;3.03;1.35;;;20.40;99.90;;;;;;5099181;28;20020;-46
2022/06/09 13:05:21;;;;;;;2.05;1.50;;;20.50;99.90;;;;;;5080707;28;20024;-45
2022/06/09 13:07:49;;;;;;;2.28;1.20;;;20.60;99.90;;;;;;5099640;28;20031;-46
2022/06/09 13:10:35;;;;;;;1.20;1.10;;;20.70;99.90;;;;;;5071229;28;20051;-47
2022/06/09 13:13:16;;;;;;;1.27;1.17;;;20.80;99.90;;;;;;5100271;28;20031;-47
2022/06/09 13:15:47;;;;;;;2.13;1.67;;;21.00;99.90;;;;;;5101096;28;20024;-46
2022/06/09 13:18:19;;;;;;;4.45;1.75;;;21.20;99.90;;;;;;5097715;28;20234;-48
2022/06/09 13:20:51;;;;;;;1.70;1.58;;;21.00;99.90;;;;;;5095754;28;20486;-46
2022/06/09 13:23:18;;;;;;;1.50;1.15;;;21.00;99.90;;;;;;5068088;28;20055;-45
2022/06/09 13:25:46;;;;;;;2.42;1.60;;;21.10;99.90;;;;;;5085769;28;20079;-47
2022/06/09 13:28:32;;;;;;;1.60;1.40;;;21.20;99.90;;;;;;5104193;28;20008;-49
2022/06/09 13:31:00;;;;;;;4.05;1.35;;;21.30;99.90;;;;;;5094965;28;20035;-49
2022/06/09 13:33:32;;;;;;;3.65;1.70;;;21.30;99.90;;;;;;5097648;28;20020;-45